createdAt,value
2023-01-01T00:02:05.006Z,43.58
2023-01-01T00:04:32.598Z,22.33
2023-01-01T00:06:59.297Z,20.80
2023-01-01T00:09:44.604Z,46.63
2023-01-01T00:12:11.633Z,18.42
2023-01-01T00:14:39.396Z,20.92
2023-01-01T00:17:06.089Z,21.73
2023-01-01T00:19:32.713Z,66.10
2023-01-01T00:22:02.113Z,19.00
2023-01-01T00:24:36.718Z,18.08
2023-01-01T00:27:03.511Z,20.48
2023-01-01T00:29:30.199Z,16.67
2023-01-01T00:31:56.881Z,15.85
2023-01-01T00:34:23.642Z,15.68
2023-01-01T00:36:50.449Z,15.82
2023-01-01T00:39:17.192Z,16.63
2023-01-01T00:41:43.856Z,15.13
2023-01-01T00:44:10.545Z,14.40
2023-01-01T00:46:37.269Z,14.90
2023-01-01T00:49:04.026Z,15.38
2023-01-01T00:51:36.762Z,13.55
2023-01-01T00:54:04.370Z,14.13
2023-01-01T00:56:31.166Z,13.88
2023-01-01T00:59:00.500Z,13.07
2023-01-01T01:01:28.287Z,12.45
2023-01-01T01:03:55.078Z,12.27
2023-01-01T01:06:21.742Z,11.65
2023-01-01T01:08:48.436Z,12.20
2023-01-01T01:11:18.477Z,12.45
2023-01-01T01:13:47.137Z,11.32
2023-01-01T01:16:15.234Z,13.18
2023-01-01T01:18:42.359Z,11.30
2023-01-01T01:21:09.078Z,11.57
2023-01-01T01:23:36.412Z,12.05
2023-01-01T01:26:20.875Z,11.73
2023-01-01T01:28:50.080Z,11.75
2023-01-01T01:31:18.577Z,10.95
2023-01-01T01:33:46.440Z,11.35
2023-01-01T01:36:14.467Z,11.57
2023-01-01T01:38:41.708Z,11.40
2023-01-01T01:41:20.279Z,10.73
2023-01-01T01:44:07.394Z,10.13
2023-01-01T01:46:42.867Z,11.00
2023-01-01T01:49:21.566Z,11.82
2023-01-01T01:51:49.677Z,10.98
2023-01-01T01:54:20.725Z,11.50
2023-01-01T01:56:59.029Z,10.95
2023-01-01T01:59:29.843Z,11.55
2023-01-01T02:01:57.327Z,10.65
2023-01-01T02:04:24.571Z,12.15
2023-01-01T02:06:54.239Z,10.50
2023-01-01T02:09:21.813Z,10.93
2023-01-01T02:11:48.460Z,10.23
2023-01-01T02:14:15.130Z,11.07
2023-01-01T02:17:10.930Z,9.82
2023-01-01T02:20:03.290Z,10.73
2023-01-01T02:23:00.492Z,9.75
2023-01-01T02:25:52.741Z,9.63
2023-01-01T02:28:42.514Z,8.95
2023-01-01T02:31:15.882Z,8.73
2023-01-01T02:33:47.518Z,8.70
2023-01-01T02:36:15.125Z,7.32
2023-01-01T02:38:46.854Z,7.65
2023-01-01T02:41:30.495Z,7.95
2023-01-01T02:46:32.246Z,6.90
2023-01-01T02:49:01.271Z,7.32
2023-01-01T02:51:42.326Z,6.53
2023-01-01T02:54:18.062Z,7.95
2023-01-01T02:57:05.065Z,7.93
2023-01-01T03:00:12.896Z,7.70
2023-01-01T03:02:52.449Z,8.07
2023-01-01T03:05:34.937Z,7.28
2023-01-01T03:08:20.079Z,6.75
2023-01-01T03:10:51.496Z,6.88
2023-01-01T03:18:35.355Z,6.22
2023-01-01T03:21:05.718Z,7.22
2023-01-01T03:23:49.340Z,6.97
2023-01-01T03:26:19.356Z,6.68
2023-01-01T03:28:58.851Z,6.72
2023-01-01T03:31:27.025Z,6.40
2023-01-01T03:34:07.188Z,6.28
2023-01-01T03:36:45.018Z,6.53
2023-01-01T03:39:42.960Z,7.03
2023-01-01T03:42:15.491Z,6.15
2023-01-01T03:45:05.843Z,6.25
2023-01-01T03:47:33.354Z,6.70
2023-01-01T03:50:01.072Z,5.88
2023-01-01T03:52:52.251Z,6.38
2023-01-01T03:55:31.234Z,5.82
2023-01-01T03:57:57.866Z,6.18
2023-01-01T04:00:28.295Z,5.05
2023-01-01T04:03:06.944Z,5.40
2023-01-01T04:05:37.807Z,4.57
2023-01-01T04:08:05.797Z,3.72
2023-01-01T04:10:35.667Z,4.50
2023-01-01T04:13:04.711Z,4.68
2023-01-01T04:15:32.983Z,4.25
2023-01-01T04:17:59.693Z,3.85
2023-01-01T04:20:26.408Z,4.20
2023-01-01T04:22:57.422Z,3.97
2023-01-01T04:25:24.177Z,4.47
2023-01-01T04:27:50.938Z,3.75
2023-01-01T04:30:18.224Z,4.28
2023-01-01T04:32:45.024Z,3.78
2023-01-01T04:35:13.857Z,3.72
2023-01-01T04:37:42.704Z,3.65
2023-01-01T04:40:10.851Z,3.38
2023-01-01T04:42:37.692Z,3.30
2023-01-01T04:45:04.673Z,2.88
2023-01-01T04:47:31.333Z,2.90
2023-01-01T04:49:58.076Z,3.03
2023-01-01T04:52:24.719Z,2.83
2023-01-01T04:54:51.367Z,2.58
2023-01-01T04:57:18.104Z,2.53
2023-01-01T04:59:44.831Z,2.40
2023-01-01T05:02:11.621Z,2.50
2023-01-01T05:04:38.523Z,2.58
2023-01-01T05:07:05.200Z,2.35
2023-01-01T05:09:32.006Z,2.33
2023-01-01T05:11:58.647Z,1.73
2023-01-01T05:14:25.317Z,2.17
2023-01-01T05:16:53.111Z,2.58
2023-01-01T05:19:19.861Z,2.63
2023-01-01T05:21:46.645Z,2.90
2023-01-01T05:24:13.528Z,2.28
2023-01-01T05:26:45.409Z,2.20
2023-01-01T05:29:16.643Z,2.13
2023-01-01T05:31:44.800Z,1.80
2023-01-01T05:34:11.630Z,2.15
2023-01-01T05:36:39.235Z,1.92
2023-01-01T05:39:12.105Z,2.00
2023-01-01T05:41:39.470Z,2.45
2023-01-01T05:44:07.409Z,1.92
2023-01-01T05:46:34.693Z,2.10
2023-01-01T05:49:01.622Z,1.67
2023-01-01T05:51:30.183Z,1.73
2023-01-01T05:53:57.897Z,1.90
2023-01-01T05:56:25.659Z,2.00
2023-01-01T05:58:52.434Z,1.70
2023-01-01T06:01:20.811Z,2.15
2023-01-01T06:03:50.557Z,2.10
2023-01-01T06:06:23.122Z,1.85
2023-01-01T06:08:55.378Z,2.30
2023-01-01T06:11:22.050Z,1.92
2023-01-01T06:13:51.516Z,1.77
2023-01-01T06:16:18.193Z,2.33
2023-01-01T06:18:45.100Z,2.13
2023-01-01T06:21:17.835Z,1.83
2023-01-01T06:23:44.914Z,1.95
2023-01-01T06:26:14.581Z,1.83
2023-01-01T06:28:42.671Z,1.60
2023-01-01T06:31:12.025Z,2.15
2023-01-01T06:33:39.531Z,1.63
2023-01-01T06:36:10.025Z,1.77
2023-01-01T06:38:39.225Z,1.88
2023-01-01T06:41:08.725Z,1.60
2023-01-01T06:43:36.263Z,3.03
2023-01-01T06:46:06.009Z,2.67
2023-01-01T06:48:35.457Z,2.45
2023-01-01T06:51:07.418Z,1.98
2023-01-01T06:53:34.342Z,2.88
2023-01-01T06:56:01.069Z,2.35
2023-01-01T06:58:27.915Z,2.10
2023-01-01T07:00:54.735Z,2.33
2023-01-01T07:03:21.449Z,1.90
2023-01-01T07:05:48.141Z,1.88
2023-01-01T07:08:14.761Z,1.80
2023-01-01T07:10:41.431Z,1.60
2023-01-01T07:13:08.190Z,1.35
2023-01-01T07:15:34.914Z,1.30
2023-01-01T07:18:01.661Z,1.33
2023-01-01T07:20:28.318Z,1.33
2023-01-01T07:22:54.996Z,1.90
2023-01-01T07:25:21.799Z,1.38
2023-01-01T07:27:48.433Z,1.63
2023-01-01T07:30:15.448Z,1.48
2023-01-01T07:32:42.140Z,1.70
2023-01-01T07:35:09.165Z,1.55
2023-01-01T07:37:36.335Z,1.48
2023-01-01T07:40:03.099Z,1.60
2023-01-01T07:42:29.838Z,1.33
2023-01-01T07:44:56.558Z,1.45
2023-01-01T07:47:25.755Z,1.25
2023-01-01T07:49:53.600Z,1.40
2023-01-01T07:52:20.313Z,1.90
2023-01-01T07:54:46.972Z,1.60
2023-01-01T07:57:13.643Z,1.27
2023-01-01T07:59:40.283Z,1.50
2023-01-01T08:02:07.099Z,1.38
2023-01-01T08:04:33.862Z,1.38
2023-01-01T08:07:00.514Z,1.13
2023-01-01T08:09:27.185Z,1.20
2023-01-01T08:11:53.885Z,1.10
2023-01-01T08:14:20.571Z,0.90
2023-01-01T08:16:47.413Z,1.10
2023-01-01T08:19:14.058Z,0.85
2023-01-01T08:21:40.708Z,1.00
2023-01-01T08:24:07.395Z,1.10
2023-01-01T08:26:36.244Z,1.60
2023-01-01T08:29:06.002Z,1.17
2023-01-01T08:31:33.496Z,1.20
2023-01-01T08:34:00.157Z,1.30
2023-01-01T08:36:26.963Z,1.02
2023-01-01T08:38:53.660Z,1.13
2023-01-01T08:41:20.327Z,1.02
2023-01-01T08:43:47.034Z,0.90
2023-01-01T08:46:13.727Z,1.10
2023-01-01T08:48:40.446Z,1.48
2023-01-01T08:51:07.189Z,1.33
2023-01-01T08:53:33.987Z,1.08
2023-01-01T08:56:11.223Z,1.42
2023-01-01T08:58:39.711Z,1.40
2023-01-01T09:01:07.481Z,1.40
2023-01-01T09:03:34.549Z,1.17
2023-01-01T09:06:01.329Z,1.33
2023-01-01T09:08:28.525Z,1.50
2023-01-01T09:11:00.016Z,1.20
2023-01-01T09:15:53.478Z,0.90
2023-01-01T09:18:20.460Z,0.88
2023-01-01T09:20:47.227Z,0.95
2023-01-01T09:23:14.525Z,1.48
2023-01-01T09:25:41.206Z,1.13
2023-01-01T09:28:11.311Z,1.00
2023-01-01T09:30:38.025Z,2.50
2023-01-01T09:33:05.065Z,2.25
2023-01-01T09:35:31.878Z,2.30
2023-01-01T09:37:58.619Z,1.80
2023-01-01T09:40:32.668Z,1.20
2023-01-01T09:43:24.259Z,1.30
2023-01-01T09:46:04.062Z,2.88
2023-01-01T09:48:32.062Z,2.17
2023-01-01T09:51:02.195Z,1.60
2023-01-01T09:53:48.517Z,1.52
2023-01-01T09:56:20.407Z,1.55
2023-01-01T09:58:47.287Z,1.20
2023-01-01T10:01:27.291Z,1.58
2023-01-01T10:04:05.128Z,1.48
2023-01-01T10:06:34.653Z,1.55
2023-01-01T10:09:16.875Z,0.90
2023-01-01T10:12:11.557Z,1.00
2023-01-01T10:14:48.783Z,0.98
2023-01-01T10:17:27.083Z,0.98
2023-01-01T10:19:58.569Z,1.73
2023-01-01T10:25:08.281Z,1.20
2023-01-01T10:27:39.060Z,2.10
2023-01-01T10:30:15.917Z,1.83
2023-01-01T10:32:43.888Z,1.40
2023-01-01T10:35:16.953Z,0.90
2023-01-01T10:37:43.903Z,1.15
2023-01-01T10:40:19.329Z,1.20
2023-01-01T10:42:50.063Z,0.70
2023-01-01T10:45:19.290Z,0.98
2023-01-01T10:48:11.924Z,0.80
2023-01-01T10:50:55.811Z,0.90
2023-01-01T10:53:38.854Z,0.93
2023-01-01T10:56:07.443Z,1.33
2023-01-01T10:58:35.929Z,2.35
2023-01-01T11:01:05.432Z,2.47
2023-01-01T11:03:33.136Z,5.93
2023-01-01T11:06:22.139Z,3.20
2023-01-01T11:09:03.628Z,3.58
2023-01-01T11:14:40.830Z,13.07
2023-01-01T11:17:18.971Z,7.57
2023-01-01T11:19:52.627Z,9.10
2023-01-01T11:22:45.609Z,3.63
2023-01-01T11:25:20.697Z,1.20
2023-01-01T11:27:49.002Z,1.27
2023-01-01T11:30:26.415Z,0.80
2023-01-01T11:33:02.969Z,26.90
2023-01-01T11:35:33.431Z,9.68
2023-01-01T11:38:00.497Z,14.48
2023-01-01T11:40:35.425Z,11.73
2023-01-01T11:43:04.932Z,9.82
2023-01-01T11:45:40.952Z,38.80
2023-01-01T11:48:26.127Z,52.30
2023-01-01T11:50:58.007Z,42.83
2023-01-01T11:53:24.702Z,66.78
2023-01-01T11:56:09.532Z,46.58
2023-01-01T11:58:36.143Z,45.53
2023-01-01T12:01:26.926Z,71.05
2023-01-01T12:04:01.515Z,36.30
2023-01-01T12:06:34.445Z,15.80
2023-01-01T12:09:25.892Z,47.38
2023-01-01T12:12:26.483Z,41.25
2023-01-01T12:15:06.359Z,45.67
2023-01-01T12:17:43.477Z,9.80
2023-01-01T12:20:23.203Z,2.30
2023-01-01T12:22:50.213Z,19.83
2023-01-01T12:25:19.814Z,39.40
2023-01-01T12:28:04.178Z,23.05
2023-01-01T12:30:57.240Z,10.30
2023-01-01T12:33:27.016Z,16.02
2023-01-01T12:36:19.047Z,5.85
2023-01-01T12:38:51.726Z,11.23
2023-01-01T12:41:45.881Z,1.60
2023-01-01T12:44:47.936Z,3.97
2023-01-01T12:47:30.930Z,1.10
2023-01-01T12:50:07.915Z,0.65
2023-01-01T12:52:40.691Z,0.68
2023-01-01T12:55:36.382Z,0.57
2023-01-01T12:58:44.419Z,0.68
2023-01-01T13:01:22.765Z,0.95
2023-01-01T13:03:56.908Z,1.00
2023-01-01T13:06:39.003Z,15.73
2023-01-01T13:09:12.966Z,15.10
2023-01-01T13:11:44.987Z,21.08
2023-01-01T13:14:13.005Z,7.45
2023-01-01T13:16:41.874Z,1.10
2023-01-01T13:19:26.344Z,2.63
2023-01-01T13:21:53.325Z,1.02
2023-01-01T13:24:22.611Z,0.88
2023-01-01T13:26:50.191Z,1.08
2023-01-01T13:29:19.925Z,1.50
2023-01-01T13:31:46.652Z,0.90
2023-01-01T13:34:35.302Z,1.75
2023-01-01T13:37:26.381Z,3.17
2023-01-01T13:40:01.666Z,2.55
2023-01-01T13:42:39.504Z,2.05
2023-01-01T13:46:09.311Z,2.47
2023-01-01T13:48:20.863Z,1.48
2023-01-01T13:51:06.310Z,22.58
2023-01-01T13:53:57.888Z,3.83
2023-01-01T13:56:47.602Z,1.13
2023-01-01T13:59:19.770Z,0.98
2023-01-01T14:02:00.596Z,26.38
2023-01-01T14:04:30.493Z,7.43
2023-01-01T14:07:13.330Z,1.33
2023-01-01T14:09:47.149Z,0.90
2023-01-01T14:12:19.143Z,1.70
2023-01-01T14:14:46.855Z,48.38
2023-01-01T14:17:15.439Z,10.32
2023-01-01T14:19:43.283Z,13.63
2023-01-01T14:22:12.071Z,11.45
2023-01-01T14:24:43.172Z,7.63
2023-01-01T14:27:14.699Z,6.75
2023-01-01T14:29:42.159Z,2.20
2023-01-01T14:32:14.375Z,1.88
2023-01-01T14:34:41.330Z,1.42
2023-01-01T14:37:24.521Z,1.17
2023-01-01T14:40:08.973Z,1.10
2023-01-01T14:42:37.160Z,3.13
2023-01-01T14:45:04.635Z,1.92
2023-01-01T14:47:34.531Z,2.72
2023-01-01T14:50:05.800Z,1.63
2023-01-01T14:52:35.501Z,3.83
2023-01-01T14:55:04.866Z,4.07
2023-01-01T14:57:37.191Z,3.80
2023-01-01T15:00:20.984Z,4.28
2023-01-01T15:02:47.758Z,2.90
2023-01-01T15:05:34.603Z,4.10
2023-01-01T15:08:04.632Z,96.70
2023-01-01T15:10:34.005Z,6.40
2023-01-01T15:13:00.709Z,2.20
2023-01-01T15:15:44.552Z,3.47
2023-01-01T15:18:40.678Z,6.53
2023-01-01T15:21:18.108Z,4.38
2023-01-01T15:24:01.349Z,8.57
2023-01-01T15:26:55.907Z,11.63
2023-01-01T15:29:35.660Z,2.35
2023-01-01T15:32:05.039Z,3.25
2023-01-01T15:34:32.797Z,3.28
2023-01-01T15:37:46.185Z,4.95
2023-01-01T15:40:15.644Z,2.78
2023-01-01T15:42:55.057Z,2.78
2023-01-01T15:45:23.232Z,2.97
2023-01-01T15:47:51.478Z,3.10
2023-01-01T15:50:24.405Z,9.65
2023-01-01T15:52:58.255Z,15.90
2023-01-01T15:55:29.033Z,12.15
2023-01-01T15:57:56.364Z,4.22
2023-01-01T16:00:26.253Z,4.70
2023-01-01T16:02:55.897Z,10.00
2023-01-01T16:05:25.779Z,7.22
2023-01-01T16:08:00.854Z,13.80
2023-01-01T16:10:27.819Z,15.95
2023-01-01T16:12:54.474Z,13.02
2023-01-01T16:15:21.177Z,6.65
2023-01-01T16:17:47.825Z,8.02
2023-01-01T16:20:19.904Z,7.03
2023-01-01T16:22:46.731Z,4.95
2023-01-01T16:25:19.161Z,7.07
2023-01-01T16:27:45.839Z,3.97
2023-01-01T16:30:14.065Z,13.25
2023-01-01T16:32:41.691Z,9.25
2023-01-01T16:35:13.033Z,10.13
2023-01-01T16:37:39.678Z,7.00
2023-01-01T16:40:07.547Z,5.55
2023-01-01T16:42:34.224Z,6.05
2023-01-01T16:45:00.953Z,3.95
2023-01-01T16:47:27.638Z,3.08
2023-01-01T16:49:54.271Z,2.80
2023-01-01T16:52:21.055Z,4.10
2023-01-01T16:54:48.180Z,2.50
2023-01-01T16:57:14.859Z,4.35
2023-01-01T16:59:41.511Z,2.63
2023-01-01T17:02:10.839Z,3.90
2023-01-01T17:04:37.658Z,5.57
2023-01-01T17:07:04.324Z,2.90
2023-01-01T17:09:30.973Z,2.55
2023-01-01T17:11:57.620Z,2.63
2023-01-01T17:14:24.345Z,2.22
2023-01-01T17:16:53.288Z,2.60
2023-01-01T17:19:20.091Z,3.92
2023-01-01T17:21:47.545Z,3.10
2023-01-01T17:24:16.178Z,6.38
2023-01-01T17:26:42.946Z,5.63
2023-01-01T17:29:09.912Z,9.77
2023-01-01T17:31:36.770Z,3.00
2023-01-01T17:34:04.127Z,1.40
2023-01-01T17:36:31.422Z,3.05
2023-01-01T17:38:58.138Z,3.80
2023-01-01T17:41:24.816Z,1.60
2023-01-01T17:43:52.376Z,1.05
2023-01-01T17:46:21.016Z,2.88
2023-01-01T17:48:48.521Z,2.90
2023-01-01T17:51:16.809Z,7.38
2023-01-01T17:53:44.135Z,3.83
2023-01-01T17:56:13.399Z,1.98
2023-01-01T17:58:41.510Z,4.15
2023-01-01T18:01:11.312Z,4.10
2023-01-01T18:03:39.964Z,3.40
2023-01-01T18:06:08.776Z,3.20
2023-01-01T18:08:35.643Z,2.60
2023-01-01T18:11:02.481Z,2.10
2023-01-01T18:13:29.244Z,1.52
2023-01-01T18:16:01.205Z,2.13
2023-01-01T18:18:30.741Z,2.35
2023-01-01T18:21:05.383Z,2.20
2023-01-01T18:23:33.501Z,1.73
2023-01-01T18:26:02.023Z,1.67
2023-01-01T18:28:29.535Z,1.90
2023-01-01T18:30:56.303Z,3.55
2023-01-01T18:33:22.986Z,2.60
2023-01-01T18:35:49.665Z,4.90
2023-01-01T18:38:18.931Z,6.35
2023-01-01T18:40:59.731Z,4.38
2023-01-01T18:43:26.440Z,1.95
2023-01-01T18:45:53.114Z,2.38
2023-01-01T18:48:21.706Z,1.60
2023-01-01T18:50:48.470Z,2.03
2023-01-01T18:53:23.213Z,1.30
2023-01-01T18:55:58.283Z,1.38
2023-01-01T18:58:25.426Z,1.35
2023-01-01T19:00:53.805Z,3.40
2023-01-01T19:03:28.011Z,2.35
2023-01-01T19:05:55.736Z,1.50
2023-01-01T19:08:22.887Z,3.72
2023-01-01T19:10:53.707Z,1.52
2023-01-01T19:13:23.451Z,2.03
2023-01-01T19:16:06.503Z,1.83
2023-01-01T19:18:34.311Z,1.63
2023-01-01T19:21:19.388Z,1.30
2023-01-01T19:23:57.883Z,1.63
2023-01-01T19:26:28.088Z,1.73
2023-01-01T19:29:02.147Z,1.23
2023-01-01T19:31:29.121Z,1.65
2023-01-01T19:33:55.791Z,1.65
2023-01-01T19:36:22.419Z,1.95
2023-01-01T19:38:49.121Z,1.77
2023-01-01T19:41:15.776Z,1.83
2023-01-01T19:43:42.573Z,2.00
2023-01-01T19:46:09.344Z,1.80
2023-01-01T19:48:36.070Z,2.08
2023-01-01T19:51:02.771Z,1.85
2023-01-01T19:53:29.509Z,2.70
2023-01-01T19:55:56.506Z,2.15
2023-01-01T19:58:23.278Z,2.10
2023-01-01T20:00:50.873Z,2.17
2023-01-01T20:06:05.278Z,2.40
2023-01-01T20:08:32.414Z,2.10
2023-01-01T20:10:59.567Z,2.20
2023-01-01T20:13:26.367Z,2.50
2023-01-01T20:15:53.047Z,2.58
2023-01-01T20:18:19.780Z,2.40
2023-01-01T20:21:04.874Z,2.88
2023-01-01T20:23:31.557Z,2.40
2023-01-01T20:25:58.416Z,2.40
2023-01-01T20:28:43.615Z,3.10
2023-01-01T20:31:10.358Z,2.50
2023-01-01T20:33:37.077Z,2.47
2023-01-01T20:36:22.351Z,2.70
2023-01-01T20:38:49.023Z,2.33
2023-01-01T20:41:24.836Z,4.00
2023-01-01T20:43:53.168Z,2.83
2023-01-01T20:46:20.228Z,3.20
2023-01-01T20:48:47.111Z,2.80
2023-01-01T20:51:14.199Z,2.90
2023-01-01T20:53:41.096Z,2.90
2023-01-01T20:56:07.754Z,3.58
2023-01-01T20:58:34.543Z,2.72
2023-01-01T21:01:01.356Z,3.40
2023-01-01T21:03:28.408Z,4.03
2023-01-01T21:05:55.378Z,3.55
2023-01-01T21:08:22.331Z,3.15
2023-01-01T21:10:49.065Z,3.35
2023-01-01T21:13:15.890Z,4.03
2023-01-01T21:15:42.721Z,2.58
2023-01-01T21:18:11.826Z,3.00
2023-01-01T21:20:44.356Z,4.25
2023-01-01T21:23:25.409Z,3.92
2023-01-01T21:25:52.525Z,4.07
2023-01-01T21:28:19.479Z,4.32
2023-01-01T21:30:54.526Z,4.00
2023-01-01T21:33:28.926Z,3.58
2023-01-01T21:35:55.939Z,3.90
2023-01-01T21:38:27.711Z,3.22
2023-01-01T21:40:56.093Z,4.28
2023-01-01T21:43:31.810Z,3.80
2023-01-01T21:46:08.007Z,5.80
2023-01-01T21:48:47.745Z,4.40
2023-01-01T21:51:19.735Z,5.15
2023-01-01T21:53:46.500Z,5.13
2023-01-01T21:56:34.082Z,5.60
2023-01-01T21:59:28.303Z,5.10
2023-01-01T22:01:58.449Z,4.78
2023-01-01T22:04:28.737Z,3.72
2023-01-01T22:07:00.611Z,5.07
2023-01-01T22:09:32.679Z,3.80
2023-01-01T22:12:24.204Z,3.88
2023-01-01T22:14:52.833Z,4.20
2023-01-01T22:17:36.738Z,4.03
2023-01-01T22:20:21.581Z,2.90
2023-01-01T22:22:49.119Z,3.72
2023-01-01T22:25:23.281Z,3.95
2023-01-01T22:27:50.965Z,4.55
2023-01-01T22:30:17.566Z,3.65
2023-01-01T22:32:54.135Z,3.63
2023-01-01T22:35:28.620Z,3.83
2023-01-01T22:37:57.821Z,3.58
2023-01-01T22:40:30.019Z,3.08
2023-01-01T22:43:00.658Z,3.35
2023-01-01T22:45:28.690Z,3.40
2023-01-01T22:47:59.378Z,3.42
2023-01-01T22:50:27.613Z,3.38
2023-01-01T22:52:54.261Z,3.25
2023-01-01T22:55:20.979Z,3.42
2023-01-01T22:57:47.820Z,3.35
2023-01-01T23:00:17.233Z,3.22
2023-01-01T23:02:44.810Z,2.97
2023-01-01T23:05:11.919Z,4.25
2023-01-01T23:07:42.061Z,3.42
2023-01-01T23:10:12.142Z,3.95
2023-01-01T23:12:38.903Z,3.28
2023-01-01T23:15:24.652Z,3.35
2023-01-01T23:17:51.429Z,3.03
2023-01-01T23:20:18.572Z,3.00
2023-01-01T23:22:49.908Z,4.03
2023-01-01T23:25:18.910Z,3.20
2023-01-01T23:27:47.529Z,3.28
2023-01-01T23:30:14.342Z,2.78
2023-01-01T23:32:42.268Z,3.25
2023-01-01T23:35:09.904Z,3.25
2023-01-01T23:37:37.052Z,3.75
2023-01-01T23:40:03.894Z,3.47
2023-01-01T23:42:30.696Z,3.60
2023-01-01T23:44:57.339Z,3.25
2023-01-01T23:47:24.045Z,3.38
2023-01-01T23:49:50.830Z,3.13
2023-01-01T23:52:17.562Z,3.00
2023-01-01T23:54:44.215Z,4.10
2023-01-01T23:57:11.021Z,4.40
2023-01-01T23:59:37.696Z,2.72
